Time;durP1;ratioP1;P1;durP2;ratioP2;P2;SDS_P1;SDS_P2;PMS_P1;PMS_P2;Temp;Humidity;BMP_temperature;BMP_pressure;BME280_temperature;BME280_humidity;BME280_pressure;Samples;Min_cycle;Max_cycle;Signal;HPM_P1;HPM_P2
2023/02/26 00:01:43;;;;;;;22.98;18.20;;;13.30;96.70;;;;;;5093296;28;20123;-75
2023/02/26 00:04:11;;;;;;;20.88;16.67;;;13.30;96.70;;;;;;5081870;28;20043;-75
2023/02/26 00:07:03;;;;;;;24.00;17.23;;;13.30;96.70;;;;;;5105296;27;20043;-74
2023/02/26 00:09:28;;;;;;;22.60;16.42;;;13.30;96.70;;;;;;5104031;28;20082;-74
2023/02/26 00:11:57;;;;;;;23.58;15.20;;;13.20;96.70;;;;;;5104055;28;20144;-74
2023/02/26 00:14:26;;;;;;;20.20;15.90;;;13.30;96.70;;;;;;5091477;28;20155;-74
2023/02/26 00:17:12;;;;;;;19.00;14.15;;;13.30;96.70;;;;;;5071770;28;20036;-74
2023/02/26 00:19:41;;;;;;;17.23;15.45;;;13.30;96.70;;;;;;5082379;28;20114;-74
2023/02/26 00:22:10;;;;;;;19.55;14.70;;;13.30;96.70;;;;;;5090662;28;20048;-75
2023/02/26 00:24:38;;;;;;;21.13;15.00;;;13.20;96.70;;;;;;5101850;28;20067;-74
2023/02/26 00:27:06;;;;;;;21.55;14.68;;;13.30;96.70;;;;;;5099030;28;20044;-74
2023/02/26 00:29:34;;;;;;;17.95;13.90;;;13.30;96.70;;;;;;5102464;28;20480;-76
2023/02/26 00:32:04;;;;;;;18.35;13.90;;;13.30;96.70;;;;;;5094212;28;20660;-74
2023/02/26 00:34:33;;;;;;;20.75;14.23;;;13.30;96.70;;;;;;5091304;28;20047;-74
2023/02/26 00:37:16;;;;;;;17.38;13.30;;;13.20;96.70;;;;;;5092019;28;20036;-75
2023/02/26 00:39:50;;;;;;;16.35;13.25;;;13.30;96.70;;;;;;5099089;28;20093;-74
2023/02/26 00:42:18;;;;;;;21.33;13.43;;;13.20;96.70;;;;;;5082504;28;20812;-74
2023/02/26 00:44:46;;;;;;;17.83;13.40;;;13.20;96.70;;;;;;5091395;28;20048;-75
2023/02/26 00:47:26;;;;;;;17.17;12.93;;;13.20;96.70;;;;;;5097872;28;20536;-75
2023/02/26 00:50:06;;;;;;;15.48;11.93;;;13.30;96.70;;;;;;5082531;28;20469;-74
2023/02/26 00:52:42;;;;;;;19.60;12.45;;;13.30;96.70;;;;;;5072317;28;20120;-74
2023/02/26 00:55:10;;;;;;;17.23;12.10;;;13.30;96.70;;;;;;5094692;28;20134;-74
2023/02/26 00:57:37;;;;;;;16.50;12.10;;;13.30;96.70;;;;;;5098291;28;20560;-75
2023/02/26 01:00:07;;;;;;;15.20;11.68;;;13.20;96.70;;;;;;5101597;28;20112;-75
2023/02/26 01:02:37;;;;;;;19.55;13.00;;;13.30;96.70;;;;;;5076799;28;20608;-75
2023/02/26 01:05:06;;;;;;;19.48;13.57;;;13.20;96.70;;;;;;5088743;28;20051;-75
2023/02/26 01:07:41;;;;;;;17.10;13.20;;;13.20;96.70;;;;;;5101341;28;20553;-74
2023/02/26 01:10:10;;;;;;;17.77;13.73;;;13.20;96.70;;;;;;5088659;28;20055;-74
2023/02/26 01:12:38;;;;;;;19.25;13.90;;;13.20;96.70;;;;;;5094026;28;20048;-74
2023/02/26 01:15:07;;;;;;;20.75;14.00;;;13.20;96.70;;;;;;5083109;28;20263;-74
2023/02/26 01:17:44;;;;;;;15.93;13.30;;;13.20;96.70;;;;;;5090751;28;20092;-74
2023/02/26 01:20:15;;;;;;;;;;;13.20;96.70;;;;;;5093603;28;20048;-74
2023/02/26 01:22:49;;;;;;;19.73;14.70;;;13.20;96.70;;;;;;5062858;28;19931;-75
2023/02/26 01:25:22;;;;;;;21.00;14.50;;;13.20;96.70;;;;;;5090792;28;20050;-75
2023/02/26 01:27:50;;;;;;;20.70;15.40;;;13.20;96.70;;;;;;5076396;28;20109;-72
2023/02/26 01:30:19;;;;;;;22.15;15.07;;;13.20;96.70;;;;;;5097351;28;20085;-75
2023/02/26 01:32:56;;;;;;;18.30;14.45;;;13.20;96.70;;;;;;5095988;28;20073;-75
2023/02/26 01:35:40;;;;;;;20.85;16.38;;;13.20;96.70;;;;;;5076256;28;20055;-76
2023/02/26 01:38:16;;;;;;;22.15;15.63;;;13.20;96.70;;;;;;5082731;28;20073;-75
2023/02/26 01:41:19;;;;;;;18.33;14.88;;;13.20;96.70;;;;;;5081541;28;20055;-76
2023/02/26 01:43:56;;;;;;;16.25;13.82;;;13.20;96.70;;;;;;5075925;28;20626;-75
2023/02/26 01:46:30;;;;;;;18.48;14.88;;;13.20;96.70;;;;;;5096232;28;20568;-75
2023/02/26 01:49:03;;;;;;;17.13;14.68;;;13.20;96.70;;;;;;5080624;28;20055;-75
2023/02/26 01:51:45;;;;;;;21.90;14.88;;;13.20;96.70;;;;;;5093845;28;20048;-75
2023/02/26 01:54:15;;;;;;;16.88;10.50;;;13.20;96.70;;;;;;5095410;28;20047;-75
2023/02/26 01:56:44;;;;;;;15.88;9.70;;;13.20;96.70;;;;;;5090884;28;20041;-75
2023/02/26 01:59:15;;;;;;;13.18;8.55;;;13.20;96.70;;;;;;5094362;28;20040;-75
2023/02/26 02:01:43;;;;;;;21.35;9.32;;;13.20;96.70;;;;;;5083842;28;20055;-75
2023/02/26 02:04:15;;;;;;;12.82;9.30;;;13.20;96.70;;;;;;5091178;28;20499;-75
2023/02/26 02:06:43;;;;;;;14.02;9.18;;;13.20;96.70;;;;;;5094854;28;20047;-75
2023/02/26 02:09:12;;;;;;;17.10;9.55;;;13.20;96.70;;;;;;5091247;28;20456;-75
2023/02/26 02:11:50;;;;;;;13.73;9.38;;;13.10;96.70;;;;;;5100488;28;20052;-74
2023/02/26 02:14:23;;;;;;;12.73;9.32;;;13.10;96.70;;;;;;5087592;28;20043;-74
2023/02/26 02:16:58;;;;;;;13.57;9.20;;;13.10;96.70;;;;;;5098967;28;20143;-74
2023/02/26 02:20:05;;;;;;;14.55;8.95;;;13.10;96.70;;;;;;5093111;28;20298;-75
2023/02/26 02:22:51;;;;;;;11.02;8.13;;;13.10;96.70;;;;;;5087814;28;20048;-75
2023/02/26 02:25:49;;;;;;;14.70;8.95;;;13.10;96.70;;;;;;5104776;28;20630;-75
2023/02/26 02:28:30;;;;;;;13.88;8.73;;;13.10;96.70;;;;;;5083727;28;20125;-75
2023/02/26 02:31:06;;;;;;;16.95;10.00;;;13.10;96.70;;;;;;5093879;28;20048;-74
2023/02/26 02:33:43;;;;;;;15.13;8.38;;;13.10;96.70;;;;;;5099647;28;20048;-75
2023/02/26 02:36:16;;;;;;;12.55;7.65;;;13.10;96.70;;;;;;5089277;28;20133;-74
2023/02/26 02:38:49;;;;;;;13.45;8.20;;;13.10;96.70;;;;;;5096392;28;20047;-75
2023/02/26 02:41:22;;;;;;;13.02;8.38;;;13.10;96.70;;;;;;5096349;28;20175;-75
2023/02/26 02:43:51;;;;;;;13.10;6.95;;;13.10;96.70;;;;;;5076358;28;20147;-75
2023/02/26 02:46:25;;;;;;;9.60;5.93;;;13.10;96.70;;;;;;5082015;28;20046;-74
2023/02/26 02:48:59;;;;;;;11.18;6.15;;;13.10;96.70;;;;;;5090339;28;20617;-74
2023/02/26 02:51:31;;;;;;;10.32;5.97;;;13.10;96.70;;;;;;5100812;28;20039;-75
2023/02/26 02:54:05;;;;;;;9.65;5.88;;;13.10;96.70;;;;;;5102963;28;20040;-75
2023/02/26 02:56:40;;;;;;;9.18;5.95;;;13.10;96.70;;;;;;5076507;28;20051;-74
2023/02/26 02:59:17;;;;;;;11.40;7.18;;;13.20;96.70;;;;;;5100435;28;20117;-74
2023/02/26 03:01:49;;;;;;;10.55;5.40;;;13.20;96.70;;;;;;5099665;28;20048;-74
2023/02/26 03:04:18;;;;;;;7.82;5.00;;;13.10;96.70;;;;;;5098921;28;20241;-75
2023/02/26 03:06:48;;;;;;;10.05;5.32;;;13.10;96.70;;;;;;5083350;28;20036;-75
2023/02/26 03:09:18;;;;;;;8.52;4.43;;;13.10;96.70;;;;;;5094536;28;20044;-74
2023/02/26 03:11:46;;;;;;;8.55;4.38;;;13.20;96.70;;;;;;5105251;28;20058;-74
2023/02/26 03:14:15;;;;;;;10.35;4.88;;;13.10;96.70;;;;;;5097465;28;20115;-75
2023/02/26 03:17:01;;;;;;;10.88;4.75;;;13.10;96.70;;;;;;5077927;28;20067;-74
2023/02/26 03:19:48;;;;;;;10.35;4.38;;;13.10;96.70;;;;;;5079629;28;20091;-74
2023/02/26 03:22:28;;;;;;;9.40;4.15;;;13.10;96.70;;;;;;5096786;28;20044;-74
2023/02/26 03:25:08;;;;;;;11.23;4.30;;;13.10;96.70;;;;;;5080566;28;20094;-74
2023/02/26 03:27:44;;;;;;;6.70;3.30;;;13.10;96.70;;;;;;5095625;28;20036;-74
2023/02/26 03:30:18;;;;;;;8.32;3.80;;;13.10;96.70;;;;;;5104659;28;20043;-74
2023/02/26 03:32:55;;;;;;;9.38;4.00;;;13.10;96.70;;;;;;5084653;28;20110;-74
2023/02/26 03:35:30;;;;;;;13.38;3.97;;;13.00;96.70;;;;;;5071208;28;20044;-74
2023/02/26 03:38:02;;;;;;;6.90;3.95;;;13.00;96.70;;;;;;5088374;28;20075;-73
2023/02/26 03:40:35;;;;;;;9.43;4.15;;;13.00;96.70;;;;;;5090120;28;20144;-74
2023/02/26 03:43:09;;;;;;;7.18;3.50;;;13.00;96.70;;;;;;5080737;28;20090;-74
2023/02/26 03:45:39;;;;;;;9.63;4.45;;;13.00;96.70;;;;;;5089943;28;20046;-74
2023/02/26 03:48:12;;;;;;;5.97;4.07;;;13.00;96.70;;;;;;5099948;28;20048;-74
2023/02/26 03:50:44;;;;;;;6.80;4.00;;;13.00;96.70;;;;;;5099484;28;20516;-73
2023/02/26 03:53:35;;;;;;;7.78;4.00;;;13.00;96.70;;;;;;5095732;28;20070;-73
2023/02/26 03:56:16;;;;;;;8.73;4.05;;;13.00;96.70;;;;;;5094044;28;20036;-73
2023/02/26 03:59:00;;;;;;;10.27;4.72;;;13.00;96.70;;;;;;5096180;28;20044;-73
2023/02/26 04:01:48;;;;;;;6.90;3.65;;;13.00;96.70;;;;;;5082936;28;20648;-74
2023/02/26 04:04:24;;;;;;;7.10;4.05;;;13.00;96.70;;;;;;5085970;28;20159;-74
2023/02/26 04:06:55;;;;;;;10.73;4.63;;;13.00;96.70;;;;;;5086545;28;20075;-73
2023/02/26 04:09:23;;;;;;;8.75;3.85;;;13.00;96.70;;;;;;5096117;28;20507;-74
2023/02/26 04:11:53;;;;;;;10.18;4.57;;;13.00;96.70;;;;;;5094881;28;20051;-74
2023/02/26 04:14:22;;;;;;;6.10;3.60;;;13.00;96.70;;;;;;5094072;28;20044;-73
2023/02/26 04:16:53;;;;;;;6.30;3.80;;;13.00;96.70;;;;;;5093389;28;20035;-73
2023/02/26 04:19:22;;;;;;;8.30;3.35;;;13.00;96.70;;;;;;5096843;28;20401;-74
2023/02/26 04:21:50;;;;;;;9.80;4.25;;;13.00;96.70;;;;;;5080540;28;20047;-73
2023/02/26 04:24:19;;;;;;;8.00;3.85;;;13.00;96.70;;;;;;5101274;28;20056;-73
2023/02/26 04:26:48;;;;;;;8.10;4.25;;;13.00;96.70;;;;;;5078109;28;20131;-74
2023/02/26 04:29:16;;;;;;;8.73;4.30;;;13.00;96.70;;;;;;5095076;28;20653;-74
2023/02/26 04:31:45;;;;;;;8.57;4.57;;;13.00;96.70;;;;;;5073919;28;20055;-73
2023/02/26 04:34:13;;;;;;;7.47;4.13;;;13.00;96.70;;;;;;5083107;28;20109;-74
2023/02/26 04:36:44;;;;;;;8.38;4.50;;;13.00;96.70;;;;;;5082838;28;20048;-74
2023/02/26 04:39:12;;;;;;;11.43;5.72;;;12.90;96.70;;;;;;5082635;28;20514;-73
2023/02/26 04:41:40;;;;;;;11.45;5.68;;;12.90;96.70;;;;;;5080738;28;20499;-73
2023/02/26 04:44:09;;;;;;;10.32;5.70;;;12.90;96.70;;;;;;5089836;28;20050;-73
2023/02/26 04:46:40;;;;;;;10.52;5.68;;;12.90;96.70;;;;;;5091655;28;20055;-73
2023/02/26 04:49:10;;;;;;;10.63;5.60;;;13.00;96.70;;;;;;5084003;28;20048;-74
2023/02/26 04:51:43;;;;;;;8.80;4.97;;;13.00;96.70;;;;;;5098288;28;20036;-73
2023/02/26 04:54:14;;;;;;;8.10;5.38;;;13.00;96.70;;;;;;5085580;28;20044;-74
2023/02/26 04:56:42;;;;;;;8.90;5.82;;;13.00;96.70;;;;;;5090953;28;20058;-73
2023/02/26 04:59:11;;;;;;;8.25;4.88;;;13.10;96.70;;;;;;5091717;28;20047;-74
2023/02/26 05:01:41;;;;;;;8.02;4.32;;;13.00;96.70;;;;;;5062915;28;20059;-74
2023/02/26 05:04:10;;;;;;;10.20;4.40;;;13.10;96.70;;;;;;5082950;28;20048;-74
2023/02/26 05:06:43;;;;;;;6.43;4.22;;;13.10;96.70;;;;;;5084906;28;20043;-74
2023/02/26 05:09:13;;;;;;;6.68;4.10;;;13.10;96.70;;;;;;5081662;28;20158;-74
2023/02/26 05:11:41;;;;;;;7.65;4.20;;;13.10;96.70;;;;;;5091638;28;20063;-74
2023/02/26 05:14:09;;;;;;;6.72;4.80;;;13.10;96.70;;;;;;5103048;28;20055;-73
2023/02/26 05:16:39;;;;;;;8.57;4.53;;;13.10;96.70;;;;;;5092988;28;20150;-74
2023/02/26 05:19:07;;;;;;;12.18;5.10;;;13.10;96.70;;;;;;5062749;28;20040;-75
2023/02/26 05:21:35;;;;;;;8.43;4.68;;;13.10;96.70;;;;;;5097217;28;20047;-74
2023/02/26 05:24:06;;;;;;;10.23;4.90;;;13.10;96.70;;;;;;5100010;28;20147;-75
2023/02/26 05:26:35;;;;;;;13.30;4.75;;;13.10;96.70;;;;;;5087122;28;20813;-74
2023/02/26 05:29:02;;;;;;;8.52;5.15;;;13.00;96.70;;;;;;5092904;28;20089;-74
2023/02/26 05:31:30;;;;;;;10.60;5.22;;;13.00;96.70;;;;;;5083848;28;20040;-74
2023/02/26 05:33:58;;;;;;;10.77;4.82;;;13.00;96.70;;;;;;5075306;28;20049;-74
2023/02/26 05:36:26;;;;;;;10.20;5.38;;;13.00;96.70;;;;;;5097840;28;20767;-74
2023/02/26 05:38:55;;;;;;;12.18;5.93;;;13.00;96.70;;;;;;5083846;28;20039;-74
2023/02/26 05:41:24;;;;;;;14.85;5.53;;;13.00;96.70;;;;;;5097629;28;20101;-74
2023/02/26 05:43:52;;;;;;;8.70;4.85;;;13.00;96.70;;;;;;5093854;28;20035;-74
2023/02/26 05:46:20;;;;;;;12.57;5.45;;;13.00;96.70;;;;;;5100081;28;20043;-73
2023/02/26 05:48:48;;;;;;;11.10;5.38;;;13.00;96.70;;;;;;5099132;28;20405;-74
2023/02/26 05:51:16;;;;;;;17.02;6.03;;;13.00;96.70;;;;;;5101770;28;20100;-74
2023/02/26 05:53:45;;;;;;;10.57;5.72;;;13.00;96.70;;;;;;5086422;28;20051;-74
2023/02/26 05:56:13;;;;;;;16.15;5.32;;;13.00;96.70;;;;;;5096599;28;20488;-74
2023/02/26 05:58:44;;;;;;;9.65;5.30;;;13.00;96.70;;;;;;5100929;28;20050;-74
2023/02/26 06:01:13;;;;;;;9.55;5.25;;;13.00;96.70;;;;;;5077366;28;20066;-74
2023/02/26 06:03:43;;;;;;;9.40;5.20;;;13.00;96.70;;;;;;5084212;28;20124;-74
2023/02/26 06:06:11;;;;;;;9.23;5.60;;;13.00;96.70;;;;;;5086639;28;20048;-74
2023/02/26 06:08:39;;;;;;;14.30;5.45;;;13.00;96.70;;;;;;5084902;28;20155;-75
2023/02/26 06:11:07;;;;;;;12.65;5.75;;;13.00;96.70;;;;;;5083570;28;20509;-74
2023/02/26 06:13:35;;;;;;;12.52;5.63;;;13.10;96.70;;;;;;5096547;28;20075;-74
2023/02/26 06:16:05;;;;;;;9.05;5.47;;;13.00;96.70;;;;;;5094170;28;20036;-75
2023/02/26 06:18:33;;;;;;;9.40;4.78;;;13.00;96.70;;;;;;5092168;28;20039;-74
2023/02/26 06:21:02;;;;;;;8.27;4.45;;;13.00;96.70;;;;;;5089512;28;20448;-74
2023/02/26 06:23:30;;;;;;;7.68;3.97;;;13.00;96.70;;;;;;5085875;28;20056;-74
2023/02/26 06:25:58;;;;;;;8.88;3.83;;;13.00;96.70;;;;;;5097551;28;20500;-74
2023/02/26 06:28:26;;;;;;;6.38;4.15;;;13.00;96.70;;;;;;5096812;28;20051;-74
2023/02/26 06:30:55;;;;;;;8.80;3.95;;;13.00;96.70;;;;;;5078049;28;20032;-74
2023/02/26 06:33:25;;;;;;;6.50;3.55;;;13.00;96.70;;;;;;5097626;28;20048;-74
2023/02/26 06:35:53;;;;;;;6.97;4.03;;;13.00;96.70;;;;;;5089653;28;20056;-74
2023/02/26 06:38:21;;;;;;;6.50;3.75;;;13.10;96.70;;;;;;5093626;28;20046;-74
2023/02/26 06:40:49;;;;;;;8.50;4.40;;;13.10;96.70;;;;;;5086634;28;20543;-75
2023/02/26 06:43:17;;;;;;;7.78;4.55;;;13.00;96.70;;;;;;5098012;28;20063;-75
2023/02/26 06:45:45;;;;;;;8.48;4.22;;;13.00;96.70;;;;;;5086625;28;20588;-75
2023/02/26 06:48:13;;;;;;;12.30;5.68;;;13.00;96.70;;;;;;5088914;28;20044;-74
2023/02/26 06:50:43;;;;;;;7.20;4.40;;;13.00;96.70;;;;;;5092510;28;20494;-75
2023/02/26 06:53:11;;;;;;;9.35;4.78;;;13.00;96.70;;;;;;5102489;28;20040;-75
2023/02/26 06:55:43;;;;;;;9.43;5.13;;;13.00;96.70;;;;;;5091355;28;20064;-75
2023/02/26 06:58:12;;;;;;;9.15;4.30;;;13.00;96.70;;;;;;5094979;28;20043;-74
2023/02/26 07:00:40;;;;;;;7.22;4.78;;;13.00;96.70;;;;;;5092736;28;20093;-75
2023/02/26 07:03:11;;;;;;;7.03;4.63;;;13.00;96.70;;;;;;5082572;28;20051;-75
2023/02/26 07:05:40;;;;;;;9.88;5.70;;;13.00;96.70;;;;;;5095696;28;20036;-74
2023/02/26 07:08:09;;;;;;;8.25;4.63;;;13.00;96.70;;;;;;5100887;28;20100;-75
2023/02/26 07:10:38;;;;;;;8.00;4.22;;;12.90;96.70;;;;;;5084819;28;20447;-75
2023/02/26 07:13:06;;;;;;;3.95;2.70;;;12.80;96.70;;;;;;5102947;28;20458;-74
2023/02/26 07:15:34;;;;;;;2.38;1.08;;;12.50;96.70;;;;;;5094702;28;20047;-73
2023/02/26 07:18:02;;;;;;;1.20;0.70;;;12.30;96.70;;;;;;5093349;28;20036;-74
2023/02/26 07:20:30;;;;;;;2.13;0.60;;;12.20;96.70;;;;;;5097206;28;20528;-74
2023/02/26 07:22:58;;;;;;;2.63;0.50;;;12.10;96.70;;;;;;5089230;28;20493;-74
2023/02/26 07:25:28;;;;;;;1.40;0.40;;;12.00;96.70;;;;;;5100949;28;20497;-75
2023/02/26 07:27:57;;;;;;;1.60;0.40;;;12.00;96.70;;;;;;5093649;28;20082;-75
2023/02/26 07:30:25;;;;;;;1.55;1.23;;;12.00;96.70;;;;;;5086205;28;20059;-75
2023/02/26 07:32:54;;;;;;;0.90;0.60;;;12.00;96.70;;;;;;5104754;28;20562;-76
2023/02/26 07:35:22;;;;;;;0.35;0.20;;;11.90;96.70;;;;;;5099873;28;20054;-74
2023/02/26 07:37:51;;;;;;;0.80;0.38;;;11.90;96.70;;;;;;5088306;28;20043;-75
2023/02/26 07:40:19;;;;;;;1.58;0.60;;;11.90;96.70;;;;;;5086693;28;20612;-75
2023/02/26 07:42:49;;;;;;;5.28;0.38;;;11.80;96.70;;;;;;5086182;28;20074;-75
2023/02/26 07:45:21;;;;;;;1.00;0.47;;;11.80;96.70;;;;;;5072028;28;20441;-75
2023/02/26 07:47:49;;;;;;;0.95;0.32;;;11.70;96.70;;;;;;5099984;28;20036;-74
2023/02/26 07:50:18;;;;;;;0.63;0.30;;;11.60;96.70;;;;;;5086414;28;20069;-74
2023/02/26 07:52:46;;;;;;;2.58;0.90;;;11.50;96.70;;;;;;5063189;28;20112;-75
2023/02/26 07:55:14;;;;;;;0.85;0.30;;;11.40;96.70;;;;;;5082561;28;20302;-75
2023/02/26 07:57:42;;;;;;;0.32;0.10;;;11.30;96.70;;;;;;5103552;28;20046;-74
2023/02/26 08:00:14;;;;;;;0.32;0.03;;;11.10;96.70;;;;;;5095477;28;20134;-75
2023/02/26 08:02:42;;;;;;;0.10;0.10;;;11.00;96.70;;;;;;5095331;28;20058;-75
2023/02/26 08:05:10;;;;;;;0.22;0.20;;;10.80;96.70;;;;;;5083422;28;20043;-75
2023/02/26 08:07:38;;;;;;;0.82;0.00;;;10.80;96.70;;;;;;5073404;28;20238;-75
2023/02/26 08:10:07;;;;;;;0.52;0.00;;;10.70;96.70;;;;;;5090928;28;20169;-74
2023/02/26 08:12:35;;;;;;;2.88;0.70;;;10.60;96.70;;;;;;5082368;28;20394;-74
2023/02/26 08:15:04;;;;;;;0.45;0.10;;;10.50;96.70;;;;;;5081396;28;20040;-74
2023/02/26 08:17:33;;;;;;;0.38;0.15;;;10.40;96.70;;;;;;5091365;28;20098;-74
2023/02/26 08:20:01;;;;;;;0.57;0.20;;;10.40;96.70;;;;;;5093435;28;20162;-74
2023/02/26 08:22:29;;;;;;;0.98;0.40;;;10.40;96.70;;;;;;5088774;28;20524;-74
2023/02/26 08:24:57;;;;;;;1.08;0.60;;;10.50;96.70;;;;;;5092816;28;20541;-74
2023/02/26 08:27:24;;;;;;;1.05;0.50;;;10.60;96.70;;;;;;5086920;28;20059;-74
2023/02/26 08:29:53;;;;;;;0.55;0.32;;;10.50;96.70;;;;;;5072340;28;20410;-74
2023/02/26 08:32:21;;;;;;;0.88;0.10;;;10.50;96.70;;;;;;5100427;28;20058;-74
2023/02/26 08:34:51;;;;;;;0.50;0.40;;;10.50;96.70;;;;;;5081164;28;20143;-74
2023/02/26 08:37:21;;;;;;;0.32;0.10;;;10.50;96.70;;;;;;5085702;28;20075;-74
2023/02/26 08:39:50;;;;;;;0.50;0.20;;;10.50;96.70;;;;;;5086422;28;20050;-78
2023/02/26 08:42:19;;;;;;;1.05;0.10;;;10.50;96.70;;;;;;5078837;28;20736;-74
2023/02/26 08:44:47;;;;;;;0.13;0.10;;;10.40;96.70;;;;;;5089290;28;20545;-75
2023/02/26 08:47:15;;;;;;;0.80;0.20;;;10.40;96.70;;;;;;5089423;28;20104;-75
2023/02/26 08:49:57;;;;;;;0.85;0.10;;;10.40;96.70;;;;;;5077298;28;20727;-74
2023/02/26 08:52:25;;;;;;;0.13;0.00;;;10.40;96.70;;;;;;5085421;28;20134;-74
2023/02/26 08:54:53;;;;;;;0.68;0.10;;;10.40;96.70;;;;;;5086356;28;20032;-74
2023/02/26 08:57:21;;;;;;;0.38;0.08;;;10.40;96.70;;;;;;5093316;28;20497;-74
2023/02/26 08:59:49;;;;;;;0.47;0.20;;;10.30;96.70;;;;;;5080267;28;20032;-74
2023/02/26 09:02:17;;;;;;;0.00;0.00;;;10.20;96.70;;;;;;5086033;28;20052;-76
2023/02/26 09:04:46;;;;;;;0.28;0.10;;;10.10;96.70;;;;;;5088841;28;20583;-74
2023/02/26 09:07:15;;;;;;;0.20;0.10;;;10.10;96.70;;;;;;5099038;28;20093;-74
2023/02/26 09:09:45;;;;;;;0.15;0.05;;;10.10;96.70;;;;;;5066125;28;20039;-74
2023/02/26 09:12:13;;;;;;;0.60;0.20;;;10.10;96.70;;;;;;5081812;28;20517;-74
2023/02/26 09:14:41;;;;;;;0.10;0.00;;;10.10;96.70;;;;;;5090315;28;20047;-74
2023/02/26 09:17:09;;;;;;;0.20;0.03;;;10.10;96.70;;;;;;5098460;28;20047;-75
2023/02/26 09:19:37;;;;;;;0.00;0.00;;;10.00;96.70;;;;;;5092968;28;20139;-74
2023/02/26 09:22:05;;;;;;;0.40;0.10;;;10.00;96.70;;;;;;5091078;28;20480;-75
2023/02/26 09:24:35;;;;;;;0.30;0.17;;;10.00;96.70;;;;;;5094037;28;20059;-73
2023/02/26 09:27:04;;;;;;;0.22;0.00;;;10.00;96.70;;;;;;5084073;28;20175;-74
2023/02/26 09:29:37;;;;;;;0.52;0.10;;;10.00;96.70;;;;;;5079836;28;20055;-74
2023/02/26 09:32:08;;;;;;;0.00;0.00;;;10.00;96.70;;;;;;5096264;28;20085;-74
2023/02/26 09:34:38;;;;;;;0.50;0.10;;;10.00;96.70;;;;;;5082932;28;20040;-74
2023/02/26 09:37:22;;;;;;;0.43;0.20;;;10.00;96.70;;;;;;5087189;28;20086;-73
2023/02/26 09:39:51;;;;;;;0.30;0.20;;;9.90;96.70;;;;;;5093235;28;20044;-74
2023/02/26 09:42:34;;;;;;;0.30;0.10;;;9.90;96.70;;;;;;5091214;28;20063;-76
2023/02/26 09:45:04;;;;;;;0.10;0.03;;;9.90;96.70;;;;;;5102274;28;20043;-73
2023/02/26 09:47:40;;;;;;;0.10;0.10;;;9.80;96.70;;;;;;5083262;28;20056;-76
2023/02/26 09:50:17;;;;;;;1.40;0.30;;;9.90;96.70;;;;;;5065521;28;20055;-76
2023/02/26 09:52:52;;;;;;;0.40;0.20;;;9.90;96.70;;;;;;5077972;28;20119;-74
2023/02/26 09:55:38;;;;;;;1.17;0.32;;;9.80;96.70;;;;;;5078399;28;20040;-74
2023/02/26 09:58:13;;;;;;;0.35;0.20;;;9.70;96.70;;;;;;5078278;28;20047;-73
2023/02/26 10:00:50;;;;;;;0.90;0.25;;;9.80;96.70;;;;;;5077221;28;20066;-72
2023/02/26 10:03:26;;;;;;;0.40;0.28;;;9.80;96.70;;;;;;5082984;28;20052;-74
2023/02/26 10:06:12;;;;;;;0.43;0.20;;;9.80;96.70;;;;;;5073240;28;20044;-73
2023/02/26 10:08:48;;;;;;;0.13;0.10;;;9.80;96.70;;;;;;5082085;28;20244;-73
2023/02/26 10:11:24;;;;;;;0.40;0.10;;;9.60;96.70;;;;;;5100855;28;20536;-74
2023/02/26 10:13:57;;;;;;;5.65;0.20;;;9.60;96.70;;;;;;5091738;28;20040;-73
2023/02/26 10:16:29;;;;;;;0.30;0.13;;;9.60;96.70;;;;;;5096348;28;20040;-73
2023/02/26 10:19:03;;;;;;;0.30;0.13;;;9.70;96.70;;;;;;5087501;28;20083;-72
2023/02/26 10:21:38;;;;;;;0.10;0.00;;;9.60;96.70;;;;;;5076076;28;20044;-73
2023/02/26 10:24:13;;;;;;;0.20;0.10;;;9.50;96.70;;;;;;5091566;28;20059;-74
2023/02/26 10:26:48;;;;;;;0.57;0.00;;;9.40;96.70;;;;;;5080880;28;20119;-75
2023/02/26 10:29:21;;;;;;;0.30;0.10;;;9.40;96.70;;;;;;5087332;28;20036;-74
2023/02/26 10:32:08;;;;;;;0.70;0.20;;;9.40;96.70;;;;;;5085701;28;20036;-74
2023/02/26 10:34:40;;;;;;;0.17;0.10;;;9.40;96.70;;;;;;5087628;28;20031;-74
2023/02/26 10:37:17;;;;;;;1.65;0.20;;;9.30;96.70;;;;;;5078284;28;20040;-73
2023/02/26 10:39:50;;;;;;;0.10;0.10;;;9.30;96.70;;;;;;5080208;28;20040;-73
2023/02/26 10:42:24;;;;;;;0.22;0.10;;;9.20;96.70;;;;;;5081105;28;20116;-72
2023/02/26 10:45:08;;;;;;;0.15;0.08;;;9.20;96.70;;;;;;5096047;28;20058;-73
2023/02/26 10:47:42;;;;;;;0.38;0.10;;;9.20;96.70;;;;;;5091866;28;20105;-73
2023/02/26 10:50:13;;;;;;;2.38;0.98;;;9.20;96.70;;;;;;5093646;28;20055;-72
2023/02/26 10:52:43;;;;;;;9.32;4.88;;;9.20;96.70;;;;;;5104252;28;20052;-74
2023/02/26 10:55:40;;;;;;;2.45;1.27;;;9.00;96.70;;;;;;5095949;28;20040;-73
2023/02/26 10:58:13;;;;;;;0.67;0.40;;;9.10;96.70;;;;;;5007610;28;20109;-73
2023/02/26 11:00:43;;;;;;;1.23;0.50;;;9.00;96.70;;;;;;5095935;28;20344;-73
2023/02/26 11:03:16;;;;;;;2.03;0.80;;;9.00;96.70;;;;;;5101770;28;20052;-73
2023/02/26 11:05:48;;;;;;;0.98;0.40;;;8.90;96.70;;;;;;5103379;28;20123;-73
2023/02/26 11:08:22;;;;;;;0.75;0.30;;;8.90;96.70;;;;;;5078137;28;20056;-72
2023/02/26 11:10:53;;;;;;;1.83;1.73;;;8.80;96.70;;;;;;5104065;28;20075;-73
2023/02/26 11:13:24;;;;;;;0.50;0.30;;;8.80;96.70;;;;;;5105660;28;20097;-72
2023/02/26 11:15:54;;;;;;;0.50;0.20;;;8.90;96.70;;;;;;5093183;28;20050;-73
2023/02/26 11:18:26;;;;;;;0.30;0.30;;;8.80;96.70;;;;;;5096842;28;20054;-73
2023/02/26 11:20:56;;;;;;;0.15;0.10;;;8.90;96.70;;;;;;5097223;28;20056;-73
2023/02/26 11:23:29;;;;;;;0.65;0.15;;;8.80;96.70;;;;;;5105000;28;20135;-74
2023/02/26 11:26:02;;;;;;;0.35;0.20;;;8.80;96.70;;;;;;5095428;28;20048;-73
2023/02/26 11:28:36;;;;;;;0.10;0.10;;;8.80;96.70;;;;;;5105262;28;20063;-73
2023/02/26 11:31:08;;;;;;;0.40;0.10;;;8.90;96.70;;;;;;5087930;28;20082;-73
2023/02/26 11:33:38;;;;;;;0.30;0.20;;;8.90;96.70;;;;;;5099766;28;20050;-73
2023/02/26 11:36:11;;;;;;;0.25;0.10;;;8.80;96.70;;;;;;5099628;28;20064;-73
2023/02/26 11:38:40;;;;;;;1.02;0.30;;;8.60;96.70;;;;;;5104955;28;20146;-73
2023/02/26 11:41:10;;;;;;;1.85;0.30;;;8.60;96.70;;;;;;5103158;28;20039;-73
2023/02/26 11:43:44;;;;;;;1.40;0.38;;;8.50;96.70;;;;;;5077879;28;20129;-73
2023/02/26 11:46:12;;;;;;;0.25;0.10;;;8.50;96.70;;;;;;5094982;28;20724;-73
2023/02/26 11:48:43;;;;;;;1.40;0.60;;;8.40;96.70;;;;;;5104877;28;20109;-73
2023/02/26 11:51:15;;;;;;;7.20;4.03;;;8.50;96.70;;;;;;5102993;28;20053;-73
2023/02/26 11:53:49;;;;;;;4.35;2.47;;;8.50;96.70;;;;;;5084275;28;20059;-73
2023/02/26 11:56:25;;;;;;;1.45;0.60;;;8.50;96.70;;;;;;5096984;28;20050;-73
2023/02/26 11:59:04;;;;;;;0.90;0.30;;;8.50;96.70;;;;;;5092236;28;20047;-73
2023/02/26 12:01:32;;;;;;;1.17;0.77;;;8.40;96.70;;;;;;5094017;28;20074;-73
2023/02/26 12:04:02;;;;;;;0.70;0.40;;;8.40;96.70;;;;;;5097903;27;20043;-73
2023/02/26 12:06:30;;;;;;;0.45;0.20;;;8.40;96.70;;;;;;5102788;28;20044;-73
2023/02/26 12:08:58;;;;;;;0.50;0.30;;;8.50;96.70;;;;;;5102765;28;20409;-73
2023/02/26 12:11:43;;;;;;;0.30;0.20;;;8.60;96.70;;;;;;5103109;28;20131;-73
2023/02/26 12:14:29;;;;;;;0.47;0.20;;;8.60;96.70;;;;;;5095068;28;20051;-73
2023/02/26 12:17:10;;;;;;;0.40;0.13;;;8.70;96.70;;;;;;5090383;28;20046;-73
2023/02/26 12:19:45;;;;;;;0.45;0.20;;;8.50;96.70;;;;;;5087231;28;20335;-72
2023/02/26 12:22:34;;;;;;;0.38;0.20;;;8.50;96.70;;;;;;5095494;28;20067;-73
2023/02/26 12:25:20;;;;;;;0.52;0.30;;;8.60;96.70;;;;;;5102123;28;20044;-73
2023/02/26 12:28:24;;;;;;;1.65;1.25;;;8.50;96.70;;;;;;5089125;28;20040;-73
2023/02/26 12:31:14;;;;;;;1.20;0.80;;;8.60;96.70;;;;;;5093107;28;20259;-73
2023/02/26 12:33:54;;;;;;;0.40;0.30;;;8.50;96.70;;;;;;5076748;28;20215;-73
2023/02/26 12:36:33;;;;;;;0.52;0.28;;;8.30;96.70;;;;;;5103675;28;20128;-73
2023/02/26 12:39:31;;;;;;;0.52;0.30;;;8.30;96.70;;;;;;5088911;28;20044;-73
2023/02/26 12:42:10;;;;;;;0.88;0.40;;;8.30;96.70;;;;;;5104011;28;20114;-73
2023/02/26 12:45:03;;;;;;;0.77;0.30;;;8.30;96.70;;;;;;5103733;28;20039;-73
2023/02/26 12:47:51;;;;;;;0.57;0.40;;;8.30;96.70;;;;;;5104149;28;20078;-73
2023/02/26 12:50:37;;;;;;;0.60;0.28;;;8.30;96.70;;;;;;5102168;28;20077;-73
2023/02/26 12:53:40;;;;;;;0.50;0.30;;;8.30;96.70;;;;;;5093107;28;20915;-73
2023/02/26 12:56:37;;;;;;;1.15;0.60;;;8.30;96.70;;;;;;5086917;28;20109;-72
2023/02/26 12:59:21;;;;;;;1.55;0.77;;;8.30;96.70;;;;;;5091715;28;20081;-73
2023/02/26 13:02:04;;;;;;;1.85;0.55;;;8.30;96.70;;;;;;5091471;28;20094;-73
2023/02/26 13:04:51;;;;;;;1.38;0.82;;;8.30;96.70;;;;;;5095649;28;20047;-72
2023/02/26 13:07:49;;;;;;;1.30;0.85;;;8.30;96.70;;;;;;5092047;28;20055;-72
2023/02/26 13:10:27;;;;;;;0.95;0.47;;;8.20;96.70;;;;;;5095915;28;20097;-73
2023/02/26 13:13:11;;;;;;;0.75;0.30;;;8.20;96.70;;;;;;5090376;28;20060;-72
2023/02/26 13:15:52;;;;;;;1.10;0.68;;;8.20;96.70;;;;;;5095968;28;20546;-72